sensor_id;sensor_type;location;lat;lon;timestamp;temperature;humidity
36434;DHT22;31691;51.972;5.672;2023-09-07T00:01:06;27.80;93.20
36434;DHT22;31691;51.972;5.672;2023-09-07T00:06:09;27.80;93.40
36434;DHT22;31691;51.972;5.672;2023-09-07T00:11:12;27.50;93.60
36434;DHT22;31691;51.972;5.672;2023-09-07T00:16:14;27.50;93.70
36434;DHT22;31691;51.972;5.672;2023-09-07T00:21:17;27.50;93.70
36434;DHT22;31691;51.972;5.672;2023-09-07T00:26:19;27.50;93.90
36434;DHT22;31691;51.972;5.672;2023-09-07T00:31:21;27.50;93.70
36434;DHT22;31691;51.972;5.672;2023-09-07T00:36:24;27.50;93.80
36434;DHT22;31691;51.972;5.672;2023-09-07T00:41:26;27.40;93.90
36434;DHT22;31691;51.972;5.672;2023-09-07T00:46:28;27.30;94.00
36434;DHT22;31691;51.972;5.672;2023-09-07T00:51:31;27.20;94.20
36434;DHT22;31691;51.972;5.672;2023-09-07T00:56:35;27.20;94.10
36434;DHT22;31691;51.972;5.672;2023-09-07T01:01:38;27.20;94.10
36434;DHT22;31691;51.972;5.672;2023-09-07T01:06:47;27.10;94.10
36434;DHT22;31691;51.972;5.672;2023-09-07T01:11:52;27.10;94.00
36434;DHT22;31691;51.972;5.672;2023-09-07T01:16:55;27.20;94.00
36434;DHT22;31691;51.972;5.672;2023-09-07T01:21:57;27.20;93.90
36434;DHT22;31691;51.972;5.672;2023-09-07T01:27:02;27.10;94.00
36434;DHT22;31691;51.972;5.672;2023-09-07T01:32:05;27.00;94.20
36434;DHT22;31691;51.972;5.672;2023-09-07T01:37:08;27.10;93.90
36434;DHT22;31691;51.972;5.672;2023-09-07T01:42:10;27.10;93.90
36434;DHT22;31691;51.972;5.672;2023-09-07T01:47:13;27.00;93.90
36434;DHT22;31691;51.972;5.672;2023-09-07T01:52:15;27.00;94.00
36434;DHT22;31691;51.972;5.672;2023-09-07T01:57:17;26.80;94.20
36434;DHT22;31691;51.972;5.672;2023-09-07T02:02:20;26.70;94.40
36434;DHT22;31691;51.972;5.672;2023-09-07T02:07:22;26.70;94.30
36434;DHT22;31691;51.972;5.672;2023-09-07T02:12:24;26.70;94.50
36434;DHT22;31691;51.972;5.672;2023-09-07T02:17:26;26.60;94.60
36434;DHT22;31691;51.972;5.672;2023-09-07T02:22:29;26.50;94.60
36434;DHT22;31691;51.972;5.672;2023-09-07T02:27:33;26.60;94.50
36434;DHT22;31691;51.972;5.672;2023-09-07T02:32:35;26.60;94.50
36434;DHT22;31691;51.972;5.672;2023-09-07T02:37:38;26.50;94.50
36434;DHT22;31691;51.972;5.672;2023-09-07T02:42:40;26.30;94.70
36434;DHT22;31691;51.972;5.672;2023-09-07T02:47:42;26.50;94.50
36434;DHT22;31691;51.972;5.672;2023-09-07T02:52:44;26.50;94.50
36434;DHT22;31691;51.972;5.672;2023-09-07T02:57:46;26.40;94.60
36434;DHT22;31691;51.972;5.672;2023-09-07T03:02:49;26.30;94.70
36434;DHT22;31691;51.972;5.672;2023-09-07T03:07:52;26.30;94.70
36434;DHT22;31691;51.972;5.672;2023-09-07T03:12:54;26.20;94.70
36434;DHT22;31691;51.972;5.672;2023-09-07T03:17:57;26.20;94.80
36434;DHT22;31691;51.972;5.672;2023-09-07T03:22:59;26.00;94.90
36434;DHT22;31691;51.972;5.672;2023-09-07T03:28:01;26.00;94.90
36434;DHT22;31691;51.972;5.672;2023-09-07T03:33:04;26.00;94.70
36434;DHT22;31691;51.972;5.672;2023-09-07T03:38:07;26.00;94.70
36434;DHT22;31691;51.972;5.672;2023-09-07T03:43:10;26.00;94.70
36434;DHT22;31691;51.972;5.672;2023-09-07T03:48:12;25.90;94.80
36434;DHT22;31691;51.972;5.672;2023-09-07T03:53:15;25.80;94.70
36434;DHT22;31691;51.972;5.672;2023-09-07T03:58:17;25.70;94.70
36434;DHT22;31691;51.972;5.672;2023-09-07T04:03:19;25.70;94.90
36434;DHT22;31691;51.972;5.672;2023-09-07T04:08:22;25.90;94.70
36434;DHT22;31691;51.972;5.672;2023-09-07T04:13:24;25.80;94.60
36434;DHT22;31691;51.972;5.672;2023-09-07T04:18:26;25.80;94.70
36434;DHT22;31691;51.972;5.672;2023-09-07T04:23:29;25.70;94.60
36434;DHT22;31691;51.972;5.672;2023-09-07T04:28:31;25.70;94.70
36434;DHT22;31691;51.972;5.672;2023-09-07T04:33:34;25.60;94.70
36434;DHT22;31691;51.972;5.672;2023-09-07T04:38:37;25.60;94.80
36434;DHT22;31691;51.972;5.672;2023-09-07T04:43:41;25.50;94.80
36434;DHT22;31691;51.972;5.672;2023-09-07T04:48:45;25.60;94.80
36434;DHT22;31691;51.972;5.672;2023-09-07T04:53:47;25.70;94.90
36434;DHT22;31691;51.972;5.672;2023-09-07T04:58:50;25.60;94.90
36434;DHT22;31691;51.972;5.672;2023-09-07T05:03:52;25.70;94.70
36434;DHT22;31691;51.972;5.672;2023-09-07T05:08:56;25.60;94.70
36434;DHT22;31691;51.972;5.672;2023-09-07T05:13:58;25.70;94.70
36434;DHT22;31691;51.972;5.672;2023-09-07T05:19:01;25.80;94.40
36434;DHT22;31691;51.972;5.672;2023-09-07T05:24:03;25.60;94.60
36434;DHT22;31691;51.972;5.672;2023-09-07T05:29:06;25.60;94.50
36434;DHT22;31691;51.972;5.672;2023-09-07T05:34:08;25.60;94.60
36434;DHT22;31691;51.972;5.672;2023-09-07T05:39:10;25.50;94.40
36434;DHT22;31691;51.972;5.672;2023-09-07T05:44:12;25.50;94.50
36434;DHT22;31691;51.972;5.672;2023-09-07T05:49:14;25.60;94.50
36434;DHT22;31691;51.972;5.672;2023-09-07T05:54:17;25.70;94.40
36434;DHT22;31691;51.972;5.672;2023-09-07T05:59:19;25.70;94.10
36434;DHT22;31691;51.972;5.672;2023-09-07T06:04:22;25.70;94.30
36434;DHT22;31691;51.972;5.672;2023-09-07T06:09:24;25.80;94.20
36434;DHT22;31691;51.972;5.672;2023-09-07T06:14:26;25.60;94.20
36434;DHT22;31691;51.972;5.672;2023-09-07T06:19:29;25.70;94.20
36434;DHT22;31691;51.972;5.672;2023-09-07T06:24:31;25.80;93.70
36434;DHT22;31691;51.972;5.672;2023-09-07T06:29:33;26.00;93.90
36434;DHT22;31691;51.972;5.672;2023-09-07T06:34:35;26.10;93.70
36434;DHT22;31691;51.972;5.672;2023-09-07T06:39:37;26.30;93.70
36434;DHT22;31691;51.972;5.672;2023-09-07T06:44:40;26.70;93.20
36434;DHT22;31691;51.972;5.672;2023-09-07T06:49:42;26.60;93.40
36434;DHT22;31691;51.972;5.672;2023-09-07T06:54:44;26.90;92.90
36434;DHT22;31691;51.972;5.672;2023-09-07T06:59:46;26.70;93.10
36434;DHT22;31691;51.972;5.672;2023-09-07T07:04:49;27.00;92.90
36434;DHT22;31691;51.972;5.672;2023-09-07T07:09:51;27.00;92.90
36434;DHT22;31691;51.972;5.672;2023-09-07T07:14:54;27.40;92.90
36434;DHT22;31691;51.972;5.672;2023-09-07T07:19:57;27.30;92.70
36434;DHT22;31691;51.972;5.672;2023-09-07T07:24:59;27.30;92.60
36434;DHT22;31691;51.972;5.672;2023-09-07T07:30:07;27.20;92.90
36434;DHT22;31691;51.972;5.672;2023-09-07T07:35:09;27.50;93.00
36434;DHT22;31691;51.972;5.672;2023-09-07T07:40:12;27.60;92.40
36434;DHT22;31691;51.972;5.672;2023-09-07T07:45:14;27.40;92.60
36434;DHT22;31691;51.972;5.672;2023-09-07T07:50:17;27.80;92.90
36434;DHT22;31691;51.972;5.672;2023-09-07T07:55:19;27.90;92.60
36434;DHT22;31691;51.972;5.672;2023-09-07T08:00:22;28.00;92.20
36434;DHT22;31691;51.972;5.672;2023-09-07T08:05:24;28.30;92.20
36434;DHT22;31691;51.972;5.672;2023-09-07T08:10:26;28.50;91.90
36434;DHT22;31691;51.972;5.672;2023-09-07T08:15:33;28.80;91.70
36434;DHT22;31691;51.972;5.672;2023-09-07T08:20:36;29.20;90.90
36434;DHT22;31691;51.972;5.672;2023-09-07T08:25:38;29.10;91.10
36434;DHT22;31691;51.972;5.672;2023-09-07T08:30:45;29.40;90.60
36434;DHT22;31691;51.972;5.672;2023-09-07T08:35:52;29.80;90.60
36434;DHT22;31691;51.972;5.672;2023-09-07T08:40:55;29.50;90.80
36434;DHT22;31691;51.972;5.672;2023-09-07T08:46:13;29.60;90.00
36434;DHT22;31691;51.972;5.672;2023-09-07T08:51:18;29.70;90.40
36434;DHT22;31691;51.972;5.672;2023-09-07T08:56:21;29.60;90.30
36434;DHT22;31691;51.972;5.672;2023-09-07T09:01:24;29.70;90.50
36434;DHT22;31691;51.972;5.672;2023-09-07T09:06:26;29.90;90.80
36434;DHT22;31691;51.972;5.672;2023-09-07T09:11:29;30.20;90.30
36434;DHT22;31691;51.972;5.672;2023-09-07T09:16:31;30.30;90.40
36434;DHT22;31691;51.972;5.672;2023-09-07T09:21:33;30.70;90.30
36434;DHT22;31691;51.972;5.672;2023-09-07T09:26:37;30.90;89.80
36434;DHT22;31691;51.972;5.672;2023-09-07T09:31:39;31.20;88.70
36434;DHT22;31691;51.972;5.672;2023-09-07T09:36:42;31.10;87.80
36434;DHT22;31691;51.972;5.672;2023-09-07T09:41:45;31.30;89.20
36434;DHT22;31691;51.972;5.672;2023-09-07T09:46:47;31.80;88.20
36434;DHT22;31691;51.972;5.672;2023-09-07T09:51:51;31.80;86.30
36434;DHT22;31691;51.972;5.672;2023-09-07T09:56:54;31.80;85.80
36434;DHT22;31691;51.972;5.672;2023-09-07T10:01:56;31.90;85.40
36434;DHT22;31691;51.972;5.672;2023-09-07T10:06:59;32.10;85.10
36434;DHT22;31691;51.972;5.672;2023-09-07T10:12:04;32.00;85.30
36434;DHT22;31691;51.972;5.672;2023-09-07T10:17:10;32.30;85.10
36434;DHT22;31691;51.972;5.672;2023-09-07T10:22:23;32.40;86.30
36434;DHT22;31691;51.972;5.672;2023-09-07T10:27:36;32.80;85.40
36434;DHT22;31691;51.972;5.672;2023-09-07T10:32:39;33.00;87.10
36434;DHT22;31691;51.972;5.672;2023-09-07T10:37:45;32.90;86.00
36434;DHT22;31691;51.972;5.672;2023-09-07T10:42:49;33.00;85.10
36434;DHT22;31691;51.972;5.672;2023-09-07T10:47:51;33.00;86.10
36434;DHT22;31691;51.972;5.672;2023-09-07T10:52:54;33.30;85.90
36434;DHT22;31691;51.972;5.672;2023-09-07T10:57:56;33.00;85.00
36434;DHT22;31691;51.972;5.672;2023-09-07T11:02:59;33.20;86.40
36434;DHT22;31691;51.972;5.672;2023-09-07T11:08:02;33.60;84.90
36434;DHT22;31691;51.972;5.672;2023-09-07T11:13:05;34.20;84.30
36434;DHT22;31691;51.972;5.672;2023-09-07T11:18:08;34.50;80.80
36434;DHT22;31691;51.972;5.672;2023-09-07T11:23:11;34.60;79.40
36434;DHT22;31691;51.972;5.672;2023-09-07T11:28:16;34.10;78.40
36434;DHT22;31691;51.972;5.672;2023-09-07T11:33:20;34.20;78.40
36434;DHT22;31691;51.972;5.672;2023-09-07T11:38:23;34.10;77.80
36434;DHT22;31691;51.972;5.672;2023-09-07T11:43:25;34.40;78.00
36434;DHT22;31691;51.972;5.672;2023-09-07T11:48:27;34.60;76.90
36434;DHT22;31691;51.972;5.672;2023-09-07T11:53:31;34.60;76.70
36434;DHT22;31691;51.972;5.672;2023-09-07T11:58:33;35.10;76.40
36434;DHT22;31691;51.972;5.672;2023-09-07T12:03:36;34.60;76.10
36434;DHT22;31691;51.972;5.672;2023-09-07T12:08:42;34.80;78.30
36434;DHT22;31691;51.972;5.672;2023-09-07T12:13:45;34.90;76.30
36434;DHT22;31691;51.972;5.672;2023-09-07T12:18:47;34.80;77.10
36434;DHT22;31691;51.972;5.672;2023-09-07T12:23:49;35.10;77.10
36434;DHT22;31691;51.972;5.672;2023-09-07T12:28:52;35.30;75.00
36434;DHT22;31691;51.972;5.672;2023-09-07T12:33:54;35.20;75.90
36434;DHT22;31691;51.972;5.672;2023-09-07T12:38:56;35.10;76.30
36434;DHT22;31691;51.972;5.672;2023-09-07T12:44:03;35.50;76.30
36434;DHT22;31691;51.972;5.672;2023-09-07T12:49:05;35.60;75.10
36434;DHT22;31691;51.972;5.672;2023-09-07T12:54:08;36.10;76.30
36434;DHT22;31691;51.972;5.672;2023-09-07T12:59:10;36.30;76.50
36434;DHT22;31691;51.972;5.672;2023-09-07T13:04:12;36.20;74.70
36434;DHT22;31691;51.972;5.672;2023-09-07T13:09:15;36.40;73.30
36434;DHT22;31691;51.972;5.672;2023-09-07T13:14:17;36.20;73.50
36434;DHT22;31691;51.972;5.672;2023-09-07T13:19:19;36.20;73.90
36434;DHT22;31691;51.972;5.672;2023-09-07T13:24:23;36.10;73.70
36434;DHT22;31691;51.972;5.672;2023-09-07T13:29:25;35.70;73.50
36434;DHT22;31691;51.972;5.672;2023-09-07T13:34:28;35.80;72.70
36434;DHT22;31691;51.972;5.672;2023-09-07T13:39:30;35.90;74.10
36434;DHT22;31691;51.972;5.672;2023-09-07T13:44:33;36.00;72.80
36434;DHT22;31691;51.972;5.672;2023-09-07T13:49:35;36.10;70.10
36434;DHT22;31691;51.972;5.672;2023-09-07T13:54:37;36.10;71.70
36434;DHT22;31691;51.972;5.672;2023-09-07T13:59:40;35.70;72.50
36434;DHT22;31691;51.972;5.672;2023-09-07T14:04:42;36.10;72.40
36434;DHT22;31691;51.972;5.672;2023-09-07T14:09:44;36.70;72.80
36434;DHT22;31691;51.972;5.672;2023-09-07T14:14:46;36.50;71.50
36434;DHT22;31691;51.972;5.672;2023-09-07T14:19:49;36.80;72.10
36434;DHT22;31691;51.972;5.672;2023-09-07T14:24:51;36.60;71.90
36434;DHT22;31691;51.972;5.672;2023-09-07T14:29:53;37.00;72.10
36434;DHT22;31691;51.972;5.672;2023-09-07T14:34:55;37.10;71.10
36434;DHT22;31691;51.972;5.672;2023-09-07T14:39:57;36.90;71.10
36434;DHT22;31691;51.972;5.672;2023-09-07T14:45:01;36.50;73.40
36434;DHT22;31691;51.972;5.672;2023-09-07T14:50:04;36.60;72.30
36434;DHT22;31691;51.972;5.672;2023-09-07T14:55:07;36.60;72.30
36434;DHT22;31691;51.972;5.672;2023-09-07T15:00:10;36.70;72.80
36434;DHT22;31691;51.972;5.672;2023-09-07T15:05:13;36.50;72.30
36434;DHT22;31691;51.972;5.672;2023-09-07T15:10:15;36.50;74.20
36434;DHT22;31691;51.972;5.672;2023-09-07T15:15:18;36.80;72.90
36434;DHT22;31691;51.972;5.672;2023-09-07T15:20:20;36.30;73.60
36434;DHT22;31691;51.972;5.672;2023-09-07T15:25:23;36.40;72.80
36434;DHT22;31691;51.972;5.672;2023-09-07T15:30:25;36.20;74.00
36434;DHT22;31691;51.972;5.672;2023-09-07T15:35:27;36.30;74.30
36434;DHT22;31691;51.972;5.672;2023-09-07T15:40:29;36.20;73.80
36434;DHT22;31691;51.972;5.672;2023-09-07T15:45:32;36.10;73.60
36434;DHT22;31691;51.972;5.672;2023-09-07T15:50:38;36.10;73.70
36434;DHT22;31691;51.972;5.672;2023-09-07T15:55:40;36.00;74.20
36434;DHT22;31691;51.972;5.672;2023-09-07T16:00:45;35.80;75.20
36434;DHT22;31691;51.972;5.672;2023-09-07T16:05:47;35.70;75.10
36434;DHT22;31691;51.972;5.672;2023-09-07T16:10:54;35.70;75.00
36434;DHT22;31691;51.972;5.672;2023-09-07T16:15:56;36.00;75.10
36434;DHT22;31691;51.972;5.672;2023-09-07T16:20:59;36.00;75.10
36434;DHT22;31691;51.972;5.672;2023-09-07T16:26:01;35.80;75.50
36434;DHT22;31691;51.972;5.672;2023-09-07T16:31:03;35.60;76.80
36434;DHT22;31691;51.972;5.672;2023-09-07T16:36:06;35.70;76.80
36434;DHT22;31691;51.972;5.672;2023-09-07T16:41:08;35.30;77.70
36434;DHT22;31691;51.972;5.672;2023-09-07T16:46:10;35.20;78.90
36434;DHT22;31691;51.972;5.672;2023-09-07T16:51:12;35.00;79.00
36434;DHT22;31691;51.972;5.672;2023-09-07T16:56:15;34.80;79.40
36434;DHT22;31691;51.972;5.672;2023-09-07T17:01:19;34.70;79.50
36434;DHT22;31691;51.972;5.672;2023-09-07T17:06:21;34.80;79.30
36434;DHT22;31691;51.972;5.672;2023-09-07T17:11:23;34.80;79.80
36434;DHT22;31691;51.972;5.672;2023-09-07T17:16:25;34.80;79.70
36434;DHT22;31691;51.972;5.672;2023-09-07T17:21:28;34.60;79.80
36434;DHT22;31691;51.972;5.672;2023-09-07T17:26:30;34.50;79.60
36434;DHT22;31691;51.972;5.672;2023-09-07T17:31:33;34.40;80.70
36434;DHT22;31691;51.972;5.672;2023-09-07T17:36:35;34.20;80.50
36434;DHT22;31691;51.972;5.672;2023-09-07T17:41:37;34.10;80.40
36434;DHT22;31691;51.972;5.672;2023-09-07T17:46:40;33.90;80.30
36434;DHT22;31691;51.972;5.672;2023-09-07T17:51:43;33.80;81.20
36434;DHT22;31691;51.972;5.672;2023-09-07T17:56:45;33.70;81.40
36434;DHT22;31691;51.972;5.672;2023-09-07T18:01:47;33.60;83.00
36434;DHT22;31691;51.972;5.672;2023-09-07T18:06:50;33.50;83.00
36434;DHT22;31691;51.972;5.672;2023-09-07T18:11:52;33.20;82.80
36434;DHT22;31691;51.972;5.672;2023-09-07T18:16:54;33.10;85.70
36434;DHT22;31691;51.972;5.672;2023-09-07T18:21:57;32.90;84.70
36434;DHT22;31691;51.972;5.672;2023-09-07T18:27:03;32.60;85.20
36434;DHT22;31691;51.972;5.672;2023-09-07T18:32:05;32.40;85.80
36434;DHT22;31691;51.972;5.672;2023-09-07T18:37:08;32.20;86.50
36434;DHT22;31691;51.972;5.672;2023-09-07T18:42:10;32.00;86.80
36434;DHT22;31691;51.972;5.672;2023-09-07T18:47:12;31.90;86.80
36434;DHT22;31691;51.972;5.672;2023-09-07T18:52:14;31.70;88.50
36434;DHT22;31691;51.972;5.672;2023-09-07T18:57:17;31.60;88.20
36434;DHT22;31691;51.972;5.672;2023-09-07T19:02:19;31.30;87.70
36434;DHT22;31691;51.972;5.672;2023-09-07T19:07:21;31.20;89.40
36434;DHT22;31691;51.972;5.672;2023-09-07T19:12:25;31.20;88.20
36434;DHT22;31691;51.972;5.672;2023-09-07T19:17:27;31.10;88.10
36434;DHT22;31691;51.972;5.672;2023-09-07T19:22:30;30.90;88.40
36434;DHT22;31691;51.972;5.672;2023-09-07T19:27:32;30.90;87.80
36434;DHT22;31691;51.972;5.672;2023-09-07T19:32:35;30.90;88.00
36434;DHT22;31691;51.972;5.672;2023-09-07T19:37:37;30.90;88.40
36434;DHT22;31691;51.972;5.672;2023-09-07T19:42:39;30.70;88.30
36434;DHT22;31691;51.972;5.672;2023-09-07T19:47:42;30.60;88.20
36434;DHT22;31691;51.972;5.672;2023-09-07T19:52:44;30.50;87.50
36434;DHT22;31691;51.972;5.672;2023-09-07T19:57:48;30.40;87.90
36434;DHT22;31691;51.972;5.672;2023-09-07T20:02:50;30.20;89.00
36434;DHT22;31691;51.972;5.672;2023-09-07T20:07:54;30.40;89.30
36434;DHT22;31691;51.972;5.672;2023-09-07T20:12:56;30.50;89.00
36434;DHT22;31691;51.972;5.672;2023-09-07T20:17:59;30.40;89.50
36434;DHT22;31691;51.972;5.672;2023-09-07T20:23:02;30.20;89.20
36434;DHT22;31691;51.972;5.672;2023-09-07T20:28:04;30.10;89.00
36434;DHT22;31691;51.972;5.672;2023-09-07T20:33:08;29.90;90.30
36434;DHT22;31691;51.972;5.672;2023-09-07T20:38:11;29.80;89.50
36434;DHT22;31691;51.972;5.672;2023-09-07T20:43:13;29.60;90.40
36434;DHT22;31691;51.972;5.672;2023-09-07T20:48:24;29.50;90.30
36434;DHT22;31691;51.972;5.672;2023-09-07T20:53:26;29.50;90.60
36434;DHT22;31691;51.972;5.672;2023-09-07T20:58:28;29.30;90.40
36434;DHT22;31691;51.972;5.672;2023-09-07T21:03:31;29.10;91.00
36434;DHT22;31691;51.972;5.672;2023-09-07T21:08:33;29.00;90.90
36434;DHT22;31691;51.972;5.672;2023-09-07T21:13:36;28.90;91.30
36434;DHT22;31691;51.972;5.672;2023-09-07T21:18:38;29.00;91.10
36434;DHT22;31691;51.972;5.672;2023-09-07T21:23:41;28.90;91.30
36434;DHT22;31691;51.972;5.672;2023-09-07T21:28:43;28.80;91.40
36434;DHT22;31691;51.972;5.672;2023-09-07T21:33:45;28.70;91.50
36434;DHT22;31691;51.972;5.672;2023-09-07T21:38:47;28.60;91.20
36434;DHT22;31691;51.972;5.672;2023-09-07T21:43:49;28.40;91.50
36434;DHT22;31691;51.972;5.672;2023-09-07T21:48:56;28.40;91.30
36434;DHT22;31691;51.972;5.672;2023-09-07T21:53:58;28.40;91.30
36434;DHT22;31691;51.972;5.672;2023-09-07T21:59:02;28.30;91.30
36434;DHT22;31691;51.972;5.672;2023-09-07T22:04:05;28.50;91.20
36434;DHT22;31691;51.972;5.672;2023-09-07T22:09:07;28.30;91.80
36434;DHT22;31691;51.972;5.672;2023-09-07T22:14:09;28.40;91.20
36434;DHT22;31691;51.972;5.672;2023-09-07T22:19:12;28.30;91.30
36434;DHT22;31691;51.972;5.672;2023-09-07T22:24:15;28.30;91.40
36434;DHT22;31691;51.972;5.672;2023-09-07T22:29:17;28.20;91.50
36434;DHT22;31691;51.972;5.672;2023-09-07T22:34:19;28.10;91.60
36434;DHT22;31691;51.972;5.672;2023-09-07T22:39:21;28.00;91.70
36434;DHT22;31691;51.972;5.672;2023-09-07T22:44:24;28.20;91.50
36434;DHT22;31691;51.972;5.672;2023-09-07T22:49:26;28.00;91.70
36434;DHT22;31691;51.972;5.672;2023-09-07T22:54:28;28.00;91.60
36434;DHT22;31691;51.972;5.672;2023-09-07T22:59:30;27.90;91.70
36434;DHT22;31691;51.972;5.672;2023-09-07T23:04:33;27.80;91.80
36434;DHT22;31691;51.972;5.672;2023-09-07T23:09:35;27.70;92.00
36434;DHT22;31691;51.972;5.672;2023-09-07T23:14:38;27.60;92.20
36434;DHT22;31691;51.972;5.672;2023-09-07T23:19:40;27.30;92.40
36434;DHT22;31691;51.972;5.672;2023-09-07T23:24:42;27.20;92.70
36434;DHT22;31691;51.972;5.672;2023-09-07T23:29:45;27.10;92.70
36434;DHT22;31691;51.972;5.672;2023-09-07T23:34:47;27.20;92.60
36434;DHT22;31691;51.972;5.672;2023-09-07T23:39:49;27.40;92.50
36434;DHT22;31691;51.972;5.672;2023-09-07T23:44:51;27.30;92.50
36434;DHT22;31691;51.972;5.672;2023-09-07T23:49:53;27.20;92.50
36434;DHT22;31691;51.972;5.672;2023-09-07T23:54:56;27.20;92.60
36434;DHT22;31691;51.972;5.672;2023-09-07T23:59:58;27.30;92.40
